Weather at Elbow Cay Emergency Helipad

Public forecast

Using degrees Celsius for public forecast. Weather courtesy of forecast.io.

Closest aviation weather report (METAR) to Elbow Cay Emergency Helipad

Report is more than 6 hours old.

Closest report is Governor's Harbour Airport, 82.7 nm (153.2 km) SSE.

2024/05/28 12:00 (retrieved 2 days ago)

MYEM 281200Z AUTO 11005KT 080V140 CAVOK 28/23 Q1018 A3006

Closest aviation forecast (TAF) to Elbow Cay Emergency Helipad

Closest forecast is Grand Bahama International Airport, 93.3 nm (172.8 km) W.

2024/05/30 06:00 (retrieved 4 hours ago)

TAF MYGF 300557Z 3006/3106 VRB02KT 9999 FEW028 BECMG 3014/3016 36006KT FEW015CB SCT025